createdAt,value
2023-04-22T00:01:51.263Z,13.70
2023-04-22T00:04:17.825Z,14.77
2023-04-22T00:06:44.452Z,13.55
2023-04-22T00:09:12.378Z,14.02
2023-04-22T00:11:38.801Z,12.82
2023-04-22T00:14:05.349Z,12.63
2023-04-22T00:16:32.171Z,12.73
2023-04-22T00:18:58.660Z,12.93
2023-04-22T00:21:25.073Z,14.38
2023-04-22T00:23:51.519Z,12.02
2023-04-22T00:26:19.281Z,13.57
2023-04-22T00:28:45.820Z,12.90
2023-04-22T00:31:12.331Z,13.15
2023-04-22T00:33:39.361Z,11.55
2023-04-22T00:36:06.256Z,11.75
2023-04-22T00:38:32.880Z,12.18
2023-04-22T00:40:59.308Z,11.57
2023-04-22T00:43:27.031Z,11.65
2023-04-22T00:45:53.490Z,10.63
2023-04-22T00:48:20.027Z,18.10
2023-04-22T00:50:46.437Z,12.68
2023-04-22T00:53:12.964Z,11.57
2023-04-22T00:55:39.940Z,13.65
2023-04-22T00:58:06.983Z,11.77
2023-04-22T01:00:35.023Z,11.30
2023-04-22T01:03:02.282Z,10.20
2023-04-22T01:05:31.069Z,12.77
2023-04-22T01:07:57.641Z,10.70
2023-04-22T01:10:25.030Z,11.40
2023-04-22T01:12:51.508Z,10.43
2023-04-22T01:15:18.143Z,10.38
2023-04-22T01:17:46.348Z,10.85
2023-04-22T01:20:12.916Z,10.40
2023-04-22T01:22:42.618Z,9.68
2023-04-22T01:25:11.031Z,9.55
2023-04-22T01:27:38.748Z,9.70
2023-04-22T01:30:06.922Z,9.75
2023-04-22T01:32:33.656Z,12.43
2023-04-22T01:35:00.140Z,12.15
2023-04-22T01:37:26.576Z,10.07
2023-04-22T01:39:53.185Z,10.15
2023-04-22T01:42:21.520Z,14.10
2023-04-22T01:44:48.060Z,10.43
2023-04-22T01:47:14.501Z,10.85
2023-04-22T01:49:41.278Z,10.95
2023-04-22T01:52:08.108Z,11.85
2023-04-22T01:54:35.014Z,11.75
2023-04-22T01:57:08.842Z,10.82
2023-04-22T01:59:36.941Z,13.18
2023-04-22T02:02:03.709Z,10.98
2023-04-22T02:04:30.181Z,11.73
2023-04-22T02:06:56.642Z,13.05
2023-04-22T02:09:23.094Z,14.00
2023-04-22T02:11:50.418Z,11.70
2023-04-22T02:16:48.309Z,9.93
2023-04-22T02:19:16.268Z,14.73
2023-04-22T02:21:42.954Z,11.18
2023-04-22T02:24:09.646Z,13.48
2023-04-22T02:26:36.032Z,12.23
2023-04-22T02:29:02.498Z,11.57
2023-04-22T02:31:29.006Z,12.63
2023-04-22T02:33:56.754Z,12.75
2023-04-22T02:36:23.223Z,12.55
2023-04-22T02:38:50.105Z,12.65
2023-04-22T02:41:16.559Z,12.52
2023-04-22T02:43:43.051Z,12.15
2023-04-22T02:46:09.644Z,11.88
2023-04-22T02:48:36.231Z,12.57
2023-04-22T02:51:05.766Z,12.80
2023-04-22T02:53:32.463Z,11.63
2023-04-22T02:55:58.909Z,12.82
2023-04-22T02:58:25.406Z,12.98
2023-04-22T03:00:51.870Z,16.20
2023-04-22T03:03:18.665Z,14.25
2023-04-22T03:05:47.509Z,11.88
2023-04-22T03:08:15.416Z,13.40
2023-04-22T03:10:42.496Z,11.52
2023-04-22T03:13:08.882Z,13.13
2023-04-22T03:15:35.748Z,14.13
2023-04-22T03:18:02.158Z,13.73
2023-04-22T03:20:28.809Z,12.32
2023-04-22T03:22:55.206Z,13.15
2023-04-22T03:25:23.478Z,12.30
2023-04-22T03:27:53.059Z,12.90
2023-04-22T03:30:19.812Z,13.38
2023-04-22T03:32:47.135Z,12.48
2023-04-22T03:35:21.736Z,12.63
2023-04-22T03:37:50.164Z,11.52
2023-04-22T03:40:22.608Z,12.88
2023-04-22T03:42:49.362Z,12.93
2023-04-22T03:45:18.497Z,11.80
2023-04-22T03:47:50.838Z,12.68
2023-04-22T03:50:22.984Z,13.27
2023-04-22T03:52:51.885Z,14.10
2023-04-22T03:55:20.680Z,13.35
2023-04-22T03:57:51.102Z,15.77
2023-04-22T04:00:17.693Z,14.20
2023-04-22T04:02:51.695Z,13.35
2023-04-22T04:05:23.086Z,10.55
2023-04-22T04:07:49.639Z,14.48
2023-04-22T04:10:16.184Z,13.20
2023-04-22T04:12:42.711Z,12.65
2023-04-22T04:15:10.834Z,10.68
2023-04-22T04:17:37.475Z,14.10
2023-04-22T04:20:05.703Z,12.45
2023-04-22T04:22:32.231Z,13.07
2023-04-22T04:25:00.519Z,11.80
2023-04-22T04:27:31.463Z,16.02
2023-04-22T04:29:58.270Z,13.27
2023-04-22T04:32:36.801Z,14.07
2023-04-22T04:35:07.555Z,14.07
2023-04-22T04:37:34.128Z,12.63
2023-04-22T04:40:07.202Z,14.27
2023-04-22T04:42:42.898Z,14.52
2023-04-22T04:45:15.529Z,12.30
2023-04-22T04:47:43.325Z,12.95
2023-04-22T04:50:20.026Z,11.98
2023-04-22T04:52:46.996Z,13.13
2023-04-22T04:55:13.604Z,15.43
2023-04-22T04:57:40.125Z,12.82
2023-04-22T05:00:07.546Z,16.27
2023-04-22T05:02:34.126Z,13.18
2023-04-22T05:05:02.096Z,15.77
2023-04-22T05:07:29.390Z,13.80
2023-04-22T05:09:57.428Z,14.23
2023-04-22T05:12:24.183Z,14.00
2023-04-22T05:14:50.657Z,13.80
2023-04-22T05:17:18.936Z,14.23
2023-04-22T05:19:45.424Z,16.73
2023-04-22T05:22:13.249Z,13.30
2023-04-22T05:24:39.652Z,13.30
2023-04-22T05:27:07.401Z,11.98
2023-04-22T05:29:34.395Z,12.98
2023-04-22T05:32:02.671Z,11.07
2023-04-22T05:34:30.113Z,12.35
2023-04-22T05:36:56.589Z,11.38
2023-04-22T05:39:24.972Z,12.90
2023-04-22T05:41:51.608Z,13.18
2023-04-22T05:44:19.304Z,13.70
2023-04-22T05:46:45.867Z,11.63
2023-04-22T05:49:12.838Z,11.77
2023-04-22T05:51:58.064Z,10.57
2023-04-22T05:54:31.574Z,10.93
2023-04-22T05:56:58.525Z,11.55
2023-04-22T05:59:25.094Z,11.25
2023-04-22T06:01:51.502Z,12.65
2023-04-22T06:04:22.163Z,14.02
2023-04-22T06:06:50.398Z,10.82
2023-04-22T06:09:16.805Z,14.00
2023-04-22T06:11:44.585Z,11.85
2023-04-22T06:14:11.027Z,12.75
2023-04-22T06:16:37.879Z,10.90
2023-04-22T06:19:05.755Z,10.73
2023-04-22T06:21:32.213Z,11.77
2023-04-22T06:23:58.647Z,11.85
2023-04-22T06:26:25.218Z,9.82
2023-04-22T06:28:56.115Z,10.32
2023-04-22T06:31:23.693Z,10.63
2023-04-22T06:33:52.856Z,14.38
2023-04-22T06:36:19.649Z,10.02
2023-04-22T06:38:52.471Z,9.75
2023-04-22T06:41:45.309Z,12.10
2023-04-22T06:44:29.094Z,11.70
2023-04-22T06:47:11.657Z,9.82
2023-04-22T06:49:46.157Z,8.90
2023-04-22T06:52:28.556Z,9.52
2023-04-22T06:54:57.292Z,9.40
2023-04-22T06:57:23.727Z,8.88
2023-04-22T06:59:51.512Z,8.80
2023-04-22T07:02:18.327Z,9.23
2023-04-22T07:04:44.837Z,9.80
2023-04-22T07:07:11.649Z,9.43
2023-04-22T07:09:38.248Z,10.00
2023-04-22T07:12:05.283Z,9.07
2023-04-22T07:14:31.927Z,9.00
2023-04-22T07:16:59.797Z,9.48
2023-04-22T07:19:26.422Z,8.80
2023-04-22T07:21:52.858Z,7.63
2023-04-22T07:24:19.313Z,8.35
2023-04-22T07:26:45.729Z,10.30
2023-04-22T07:29:12.173Z,9.25
2023-04-22T07:31:38.906Z,9.65
2023-04-22T07:34:06.739Z,8.52
2023-04-22T07:36:33.212Z,7.65
2023-04-22T07:38:59.765Z,7.43
2023-04-22T07:41:26.179Z,8.38
2023-04-22T07:43:52.581Z,9.20
2023-04-22T07:46:19.206Z,10.40
2023-04-22T07:48:45.728Z,8.75
2023-04-22T07:51:13.433Z,8.85
2023-04-22T07:53:39.987Z,7.38
2023-04-22T07:56:06.672Z,10.60
2023-04-22T07:58:33.166Z,6.82
2023-04-22T08:00:59.612Z,7.13
2023-04-22T08:03:26.512Z,9.07
2023-04-22T08:05:53.113Z,6.57
2023-04-22T08:08:20.917Z,8.52
2023-04-22T08:10:48.531Z,8.02
2023-04-22T08:13:16.410Z,6.97
2023-04-22T08:15:44.223Z,8.00
2023-04-22T08:18:10.710Z,7.40
2023-04-22T08:20:37.321Z,7.03
2023-04-22T08:23:03.817Z,9.10
2023-04-22T08:25:31.616Z,6.97
2023-04-22T08:27:58.116Z,6.97
2023-04-22T08:30:24.685Z,8.82
2023-04-22T08:32:51.146Z,7.07
2023-04-22T08:35:17.649Z,5.75
2023-04-22T08:37:44.093Z,5.68
2023-04-22T08:40:10.898Z,6.03
2023-04-22T08:42:39.833Z,6.03
2023-04-22T08:45:06.667Z,6.50
2023-04-22T08:47:34.810Z,6.30
2023-04-22T08:50:02.919Z,5.72
2023-04-22T08:52:30.264Z,5.95
2023-04-22T08:54:56.825Z,7.47
2023-04-22T08:57:23.915Z,7.22
2023-04-22T08:59:52.118Z,7.05
2023-04-22T09:02:23.798Z,7.28
2023-04-22T09:04:53.304Z,6.65
2023-04-22T09:07:23.314Z,7.13
2023-04-22T09:09:50.044Z,7.03
2023-04-22T09:12:20.919Z,7.72
2023-04-22T09:14:55.268Z,6.80
2023-04-22T09:17:30.802Z,6.32
2023-04-22T09:19:58.663Z,10.52
2023-04-22T09:22:26.591Z,9.55
2023-04-22T09:24:53.240Z,7.40
2023-04-22T09:27:21.349Z,9.30
2023-04-22T09:29:49.439Z,6.15
2023-04-22T09:32:17.519Z,7.90
2023-04-22T09:34:49.269Z,5.95
2023-04-22T09:37:30.799Z,8.30
2023-04-22T09:40:02.583Z,6.78
2023-04-22T09:42:29.034Z,7.63
2023-04-22T09:44:55.492Z,8.68
2023-04-22T09:47:23.332Z,8.00
2023-04-22T09:49:50.194Z,8.45
2023-04-22T09:52:23.100Z,6.05
2023-04-22T09:54:50.046Z,7.93
2023-04-22T09:57:16.488Z,8.18
2023-04-22T09:59:42.952Z,6.28
2023-04-22T10:02:09.577Z,6.22
2023-04-22T10:04:38.356Z,6.88
2023-04-22T10:07:04.907Z,7.65
2023-04-22T10:09:31.535Z,8.55
2023-04-22T10:11:58.027Z,6.20
2023-04-22T10:14:25.048Z,7.22
2023-04-22T10:16:56.391Z,8.13
2023-04-22T10:19:24.698Z,7.05
2023-04-22T10:21:56.413Z,6.93
2023-04-22T10:24:26.006Z,9.13
2023-04-22T10:29:35.382Z,7.25
2023-04-22T10:32:23.393Z,6.18
2023-04-22T10:37:25.059Z,5.63
2023-04-22T10:40:16.915Z,5.25
2023-04-22T10:42:49.989Z,6.88
2023-04-22T10:45:16.946Z,4.72
2023-04-22T10:47:44.073Z,5.07
2023-04-22T10:50:17.673Z,5.32
2023-04-22T10:52:49.060Z,6.10
2023-04-22T10:55:15.860Z,5.80
2023-04-22T10:57:56.661Z,6.28
2023-04-22T11:00:35.335Z,8.10
2023-04-22T11:03:21.981Z,6.80
2023-04-22T11:06:09.261Z,5.38
2023-04-22T11:08:37.151Z,4.55
2023-04-22T11:11:10.592Z,5.82
2023-04-22T11:13:37.397Z,5.28
2023-04-22T11:16:12.118Z,4.68
2023-04-22T11:18:38.904Z,7.03
2023-04-22T11:21:06.350Z,6.53
2023-04-22T11:23:33.317Z,5.38
2023-04-22T11:26:03.117Z,6.38
2023-04-22T11:28:30.002Z,5.07
2023-04-22T11:31:03.991Z,5.45
2023-04-22T11:33:32.157Z,5.55
2023-04-22T11:35:58.585Z,4.65
2023-04-22T11:38:24.988Z,5.43
2023-04-22T11:40:51.519Z,5.32
2023-04-22T11:43:19.302Z,5.28
2023-04-22T11:45:45.796Z,5.00
2023-04-22T11:48:14.905Z,4.93
2023-04-22T11:50:42.325Z,5.93
2023-04-22T11:53:14.317Z,5.25
2023-04-22T11:55:41.620Z,5.93
2023-04-22T11:58:09.971Z,8.73
2023-04-22T12:00:40.784Z,6.18
2023-04-22T12:03:14.671Z,4.82
2023-04-22T12:05:43.251Z,9.23
2023-04-22T12:08:12.074Z,5.43
2023-04-22T12:10:43.858Z,5.40
2023-04-22T12:13:17.453Z,5.18
2023-04-22T12:15:57.623Z,5.30
2023-04-22T12:18:31.352Z,4.10
2023-04-22T12:21:02.332Z,6.85
2023-04-22T12:23:29.040Z,4.68
2023-04-22T12:25:55.561Z,4.93
2023-04-22T12:28:22.147Z,4.30
2023-04-22T12:30:48.684Z,5.90
2023-04-22T12:33:16.556Z,5.82
2023-04-22T12:35:43.088Z,4.95
2023-04-22T12:38:09.577Z,5.57
2023-04-22T12:40:36.019Z,5.25
2023-04-22T12:43:02.535Z,3.88
2023-04-22T12:45:29.006Z,5.35
2023-04-22T12:47:55.523Z,6.00
2023-04-22T12:50:23.412Z,4.68
2023-04-22T12:52:50.121Z,4.25
2023-04-22T12:55:16.850Z,6.68
2023-04-22T12:57:44.575Z,5.57
2023-04-22T13:00:11.926Z,3.70
2023-04-22T13:02:38.472Z,4.70
2023-04-22T13:05:05.277Z,5.55
2023-04-22T13:07:33.092Z,4.03
2023-04-22T13:09:59.495Z,5.20
2023-04-22T13:12:26.144Z,5.38
2023-04-22T13:14:52.593Z,5.03
2023-04-22T13:17:19.054Z,5.90
2023-04-22T13:19:47.221Z,5.53
2023-04-22T13:22:13.905Z,4.40
2023-04-22T13:24:41.778Z,5.03
2023-04-22T13:27:08.273Z,5.47
2023-04-22T13:29:35.428Z,5.45
2023-04-22T13:32:02.790Z,3.70
2023-04-22T13:34:29.392Z,4.95
2023-04-22T13:36:56.686Z,6.43
2023-04-22T13:39:23.136Z,4.55
2023-04-22T13:41:51.036Z,6.05
2023-04-22T13:44:18.561Z,6.15
2023-04-22T13:46:45.058Z,3.58
2023-04-22T13:49:11.585Z,6.28
2023-04-22T13:51:38.190Z,3.42
2023-04-22T13:54:05.145Z,4.68
2023-04-22T13:56:32.264Z,6.72
2023-04-22T13:59:00.301Z,7.32
2023-04-22T14:01:26.993Z,3.50
2023-04-22T14:03:54.653Z,5.10
2023-04-22T14:06:24.250Z,5.32
2023-04-22T14:11:19.234Z,4.85
2023-04-22T14:13:45.707Z,3.55
2023-04-22T14:16:15.610Z,4.68
2023-04-22T14:18:42.064Z,7.47
2023-04-22T14:21:09.124Z,5.32
2023-04-22T14:23:35.861Z,5.05
2023-04-22T14:26:02.776Z,5.20
2023-04-22T14:28:29.263Z,3.40
2023-04-22T14:30:56.146Z,4.43
2023-04-22T14:33:33.033Z,3.90
2023-04-22T14:35:59.505Z,4.80
2023-04-22T14:38:25.988Z,4.95
2023-04-22T14:40:52.549Z,6.70
2023-04-22T14:43:19.757Z,5.82
2023-04-22T14:45:46.922Z,5.55
2023-04-22T14:48:13.871Z,5.47
2023-04-22T14:50:42.375Z,5.75
2023-04-22T14:53:09.016Z,6.95
2023-04-22T14:55:35.606Z,7.53
2023-04-22T14:58:02.098Z,5.72
2023-04-22T15:00:29.214Z,4.28
2023-04-22T15:02:56.178Z,5.32
2023-04-22T15:05:22.805Z,4.78
2023-04-22T15:07:50.867Z,4.78
2023-04-22T15:10:22.718Z,5.03
2023-04-22T15:12:50.358Z,4.03
2023-04-22T15:15:16.865Z,6.25
2023-04-22T15:17:44.393Z,4.82
2023-04-22T15:20:11.862Z,6.22
2023-04-22T15:22:38.614Z,6.85
2023-04-22T15:25:08.087Z,4.88
2023-04-22T15:27:38.282Z,6.50
2023-04-22T15:30:09.004Z,4.47
2023-04-22T15:32:38.342Z,6.43
2023-04-22T15:35:08.373Z,6.85
2023-04-22T15:37:36.277Z,5.00
2023-04-22T15:40:02.951Z,4.15
2023-04-22T15:42:30.721Z,4.75
2023-04-22T15:44:57.185Z,4.75
2023-04-22T15:47:23.685Z,9.10
2023-04-22T15:49:52.505Z,15.48
2023-04-22T15:52:23.149Z,7.38
2023-04-22T15:55:28.512Z,7.20
2023-04-22T15:58:34.537Z,7.03
2023-04-22T16:01:18.896Z,4.90
2023-04-22T16:07:02.295Z,4.13
2023-04-22T16:09:34.668Z,5.28
2023-04-22T16:12:07.196Z,6.40
2023-04-22T16:14:38.090Z,13.43
2023-04-22T16:17:07.801Z,21.23
2023-04-22T16:19:35.213Z,25.17
2023-04-22T16:22:01.770Z,13.85
2023-04-22T16:24:28.272Z,8.85
2023-04-22T16:26:54.689Z,12.65
2023-04-22T16:29:22.949Z,14.07
2023-04-22T16:31:51.739Z,10.90
2023-04-22T16:34:21.086Z,17.05
2023-04-22T16:36:49.200Z,8.80
2023-04-22T16:39:15.648Z,7.35
2023-04-22T16:41:42.139Z,10.05
2023-04-22T16:44:09.265Z,5.70
2023-04-22T16:46:35.848Z,6.50
2023-04-22T16:49:03.675Z,6.50
2023-04-22T16:51:30.144Z,6.90
2023-04-22T16:53:56.523Z,5.43
2023-04-22T16:56:22.977Z,7.45
2023-04-22T16:58:49.682Z,8.20
2023-04-22T17:01:16.121Z,9.43
2023-04-22T17:03:42.807Z,8.90
2023-04-22T17:06:10.666Z,8.80
2023-04-22T17:08:37.085Z,9.55
2023-04-22T17:11:03.759Z,11.32
2023-04-22T17:13:30.170Z,10.43
2023-04-22T17:15:56.725Z,9.40
2023-04-22T17:18:23.246Z,7.70
2023-04-22T17:20:49.802Z,10.88
2023-04-22T17:23:18.995Z,7.70
2023-04-22T17:25:45.414Z,7.35
2023-04-22T17:28:11.925Z,6.82
2023-04-22T17:30:38.370Z,9.95
2023-04-22T17:33:04.902Z,10.70
2023-04-22T17:35:31.424Z,7.70
2023-04-22T17:37:57.815Z,8.32
2023-04-22T17:40:25.677Z,6.60
2023-04-22T17:42:55.139Z,9.40
2023-04-22T17:45:21.556Z,6.15
2023-04-22T17:47:47.959Z,8.13
2023-04-22T17:50:14.565Z,5.63
2023-04-22T17:52:41.089Z,6.43
2023-04-22T17:55:08.781Z,6.43
2023-04-22T17:57:36.491Z,7.93
2023-04-22T18:00:03.303Z,8.68
2023-04-22T18:02:34.275Z,7.57
2023-04-22T18:05:00.945Z,6.88
2023-04-22T18:07:27.395Z,6.38
2023-04-22T18:09:53.815Z,5.53
2023-04-22T18:12:20.335Z,5.90
2023-04-22T18:14:48.065Z,9.45
2023-04-22T18:17:14.542Z,9.95
2023-04-22T18:19:41.371Z,9.57
2023-04-22T18:22:08.152Z,13.00
2023-04-22T18:24:34.606Z,8.50
2023-04-22T18:27:01.040Z,8.93
2023-04-22T18:29:27.465Z,8.32
2023-04-22T18:31:56.200Z,9.65
2023-04-22T18:34:22.669Z,7.05
2023-04-22T18:36:49.283Z,8.32
2023-04-22T18:39:15.753Z,7.65
2023-04-22T18:41:43.235Z,7.40
2023-04-22T18:44:09.657Z,8.15
2023-04-22T18:46:36.170Z,9.07
2023-04-22T18:49:04.227Z,8.20
2023-04-22T18:51:30.885Z,11.85
2023-04-22T18:53:57.428Z,10.20
2023-04-22T18:56:23.847Z,8.00
2023-04-22T18:58:50.310Z,11.52
2023-04-22T19:01:16.880Z,10.60
2023-04-22T19:03:43.619Z,9.63
2023-04-22T19:06:11.589Z,11.07
2023-04-22T19:08:37.975Z,11.00
2023-04-22T19:11:04.545Z,10.38
2023-04-22T19:13:31.226Z,11.80
2023-04-22T19:15:58.106Z,10.63
2023-04-22T19:18:24.701Z,9.93
2023-04-22T19:20:51.277Z,12.82
2023-04-22T19:23:19.190Z,9.88
2023-04-22T19:25:45.664Z,9.90
2023-04-22T19:28:12.178Z,9.90
2023-04-22T19:30:38.754Z,9.52
2023-04-22T19:33:05.389Z,11.20
2023-04-22T19:35:31.840Z,10.43
2023-04-22T19:37:58.309Z,11.85
2023-04-22T19:40:26.074Z,10.85
2023-04-22T19:42:53.256Z,11.38
2023-04-22T19:45:19.864Z,11.50
2023-04-22T19:47:46.817Z,11.63
2023-04-22T19:50:14.134Z,10.82
2023-04-22T19:52:41.621Z,10.68
2023-04-22T19:55:09.669Z,9.57
2023-04-22T19:57:38.467Z,11.30
2023-04-22T20:00:06.249Z,13.13
2023-04-22T20:02:39.998Z,10.63
2023-04-22T20:05:07.292Z,9.55
2023-04-22T20:07:35.021Z,9.85
2023-04-22T20:10:03.090Z,9.13
2023-04-22T20:12:30.039Z,9.80
2023-04-22T20:14:58.862Z,9.13
2023-04-22T20:17:26.069Z,12.13
2023-04-22T20:19:53.328Z,9.55
2023-04-22T20:22:23.649Z,9.73
2023-04-22T20:24:54.037Z,8.20
2023-04-22T20:27:24.432Z,9.43
2023-04-22T20:29:53.272Z,12.02
2023-04-22T20:32:23.095Z,10.65
2023-04-22T20:34:52.929Z,7.70
2023-04-22T20:37:23.783Z,9.35
2023-04-22T20:39:51.952Z,10.63
2023-04-22T20:42:19.446Z,10.00
2023-04-22T20:44:46.309Z,8.07
2023-04-22T20:47:12.771Z,8.13
2023-04-22T20:49:40.629Z,8.63
2023-04-22T20:52:07.432Z,12.23
2023-04-22T20:54:33.981Z,9.60
2023-04-22T20:57:00.357Z,9.27
2023-04-22T20:59:26.831Z,8.93
2023-04-22T21:01:53.939Z,10.45
2023-04-22T21:04:22.173Z,9.00
2023-04-22T21:06:50.688Z,10.35
2023-04-22T21:09:18.152Z,15.40
2023-04-22T21:11:50.262Z,9.50
2023-04-22T21:14:17.334Z,10.95
2023-04-22T21:16:53.101Z,10.82
2023-04-22T21:19:20.226Z,10.15
2023-04-22T21:21:47.344Z,9.02
2023-04-22T21:24:15.350Z,9.13
2023-04-22T21:26:42.931Z,10.88
2023-04-22T21:29:09.825Z,10.40
2023-04-22T21:31:36.435Z,10.38
2023-04-22T21:34:02.932Z,9.50
2023-04-22T21:36:29.771Z,10.50
2023-04-22T21:38:56.280Z,13.07
2023-04-22T21:41:24.220Z,9.13
2023-04-22T21:43:50.794Z,9.60
2023-04-22T21:46:17.455Z,9.65
2023-04-22T21:48:44.038Z,9.25
2023-04-22T21:51:10.520Z,10.85
2023-04-22T21:53:36.997Z,9.60
2023-04-22T21:56:03.674Z,8.70
2023-04-22T21:58:31.689Z,12.43
2023-04-22T22:00:58.234Z,8.98
2023-04-22T22:03:25.063Z,9.63
2023-04-22T22:05:51.657Z,9.85
2023-04-22T22:08:18.246Z,10.07
2023-04-22T22:10:44.647Z,11.52
2023-04-22T22:13:11.089Z,10.23
2023-04-22T22:15:38.829Z,8.68
2023-04-22T22:18:05.532Z,8.93
2023-04-22T22:20:32.014Z,14.55
2023-04-22T22:22:58.445Z,10.07
2023-04-22T22:25:25.417Z,9.77
2023-04-22T22:27:51.904Z,10.15
2023-04-22T22:30:19.542Z,7.82
2023-04-22T22:32:47.362Z,9.13
2023-04-22T22:35:14.115Z,9.68
2023-04-22T22:37:40.536Z,7.88
2023-04-22T22:40:07.894Z,8.80
2023-04-22T22:42:34.383Z,8.75
2023-04-22T22:45:00.830Z,10.20
2023-04-22T22:47:27.377Z,9.13
2023-04-22T22:49:55.164Z,10.63
2023-04-22T22:52:21.984Z,10.65
2023-04-22T22:54:49.117Z,11.68
2023-04-22T22:57:15.753Z,10.40
2023-04-22T22:59:42.182Z,11.50
2023-04-22T23:02:08.611Z,9.35
2023-04-22T23:04:35.267Z,11.50
2023-04-22T23:07:03.165Z,8.70
2023-04-22T23:09:29.599Z,10.45
2023-04-22T23:11:56.059Z,8.73
2023-04-22T23:14:23.364Z,10.88
2023-04-22T23:16:50.133Z,10.32
2023-04-22T23:19:17.386Z,8.20
2023-04-22T23:21:44.618Z,10.80
2023-04-22T23:24:14.745Z,8.32
2023-04-22T23:26:41.871Z,8.35
2023-04-22T23:29:08.461Z,8.85
2023-04-22T23:31:35.533Z,11.02
2023-04-22T23:34:04.135Z,9.98
2023-04-22T23:36:31.511Z,11.00
2023-04-22T23:38:58.127Z,9.52
2023-04-22T23:41:26.070Z,10.02
2023-04-22T23:43:52.544Z,10.13
2023-04-22T23:46:20.910Z,10.63
2023-04-22T23:48:47.602Z,9.70
2023-04-22T23:51:14.198Z,10.85
2023-04-22T23:53:40.659Z,9.93
2023-04-22T23:56:08.093Z,11.18
2023-04-22T23:58:39.017Z,9.10
